createdAt,value
2018-03-26T00:01:26.486Z,123.73
2018-03-26T00:03:54.715Z,126.97
2018-03-26T00:06:22.243Z,121.00
2018-03-26T00:08:49.764Z,147.50
2018-03-26T00:11:17.314Z,124.40
2018-03-26T00:13:44.779Z,134.87
2018-03-26T00:16:13.028Z,127.90
2018-03-26T00:18:40.494Z,120.90
2018-03-26T00:21:07.978Z,135.70
2018-03-26T00:23:36.246Z,123.60
2018-03-26T00:26:04.486Z,133.00
2018-03-26T00:28:31.954Z,135.23
2018-03-26T00:30:59.438Z,123.67
2018-03-26T00:33:27.674Z,134.00
2018-03-26T00:35:55.157Z,141.13
2018-03-26T00:38:22.664Z,143.53
2018-03-26T00:40:50.180Z,133.67
2018-03-26T00:43:17.633Z,125.67
2018-03-26T00:45:45.909Z,133.33
2018-03-26T00:48:14.135Z,131.23
2018-03-26T00:50:41.606Z,121.83
2018-03-26T00:53:09.110Z,119.30
2018-03-26T00:55:37.346Z,132.17
2018-03-26T00:58:04.852Z,124.97
2018-03-26T01:00:32.312Z,122.00
2018-03-26T01:03:01.735Z,117.43
2018-03-26T01:05:29.251Z,117.70
2018-03-26T01:07:57.484Z,114.80
2018-03-26T01:10:24.954Z,116.77
2018-03-26T01:12:52.453Z,99.53
2018-03-26T01:15:20.678Z,102.20
2018-03-26T01:17:48.142Z,104.97
2018-03-26T01:20:15.660Z,114.30
2018-03-26T01:22:44.141Z,107.87
2018-03-26T01:25:11.625Z,110.50
2018-03-26T01:27:39.103Z,99.50
2018-03-26T01:30:06.576Z,104.80
2018-03-26T01:32:34.068Z,89.47
2018-03-26T01:35:01.588Z,87.70
2018-03-26T01:37:29.040Z,86.60
2018-03-26T01:39:57.294Z,87.47
2018-03-26T01:42:24.746Z,89.33
2018-03-26T01:44:52.340Z,82.17
2018-03-26T01:47:20.574Z,95.60
2018-03-26T01:49:48.074Z,87.37
2018-03-26T01:52:16.534Z,85.50
2018-03-26T01:54:43.995Z,82.03
2018-03-26T01:57:12.229Z,89.87
2018-03-26T01:59:39.725Z,89.43
2018-03-26T02:02:07.187Z,88.70
2018-03-26T02:04:34.647Z,82.33
2018-03-26T02:07:02.886Z,93.60
2018-03-26T02:09:30.352Z,94.57
2018-03-26T02:11:57.826Z,95.37
2018-03-26T02:14:25.303Z,92.43
2018-03-26T02:16:53.534Z,99.93
2018-03-26T02:19:21.002Z,92.27
2018-03-26T02:21:48.463Z,95.73
2018-03-26T02:24:16.019Z,99.63
2018-03-26T02:26:43.641Z,96.70
2018-03-26T02:29:11.824Z,100.00
2018-03-26T02:31:39.310Z,93.37
2018-03-26T02:34:06.777Z,92.53
2018-03-26T02:36:34.242Z,101.40
2018-03-26T02:39:02.492Z,102.57
2018-03-26T02:41:29.963Z,116.47
2018-03-26T02:43:57.422Z,106.93
2018-03-26T02:46:25.680Z,105.27
2018-03-26T02:48:53.135Z,119.40
2018-03-26T02:51:20.613Z,105.80
2018-03-26T02:53:48.931Z,120.93
2018-03-26T02:56:16.454Z,112.30
2018-03-26T02:58:44.775Z,113.40
2018-03-26T03:01:12.237Z,119.73
2018-03-26T03:03:39.727Z,123.73
2018-03-26T03:06:07.199Z,120.47
2018-03-26T03:08:35.426Z,130.03
2018-03-26T03:11:02.920Z,132.83
2018-03-26T03:13:30.382Z,120.73
2018-03-26T03:15:59.463Z,122.83
2018-03-26T03:18:26.947Z,132.40
2018-03-26T03:20:55.187Z,138.07
2018-03-26T03:23:24.180Z,121.63
2018-03-26T03:25:51.654Z,136.47
2018-03-26T03:28:19.902Z,123.40
2018-03-26T03:30:47.365Z,128.67
2018-03-26T03:33:14.845Z,134.90
2018-03-26T03:35:43.093Z,130.43
2018-03-26T03:38:10.571Z,125.57
2018-03-26T03:40:38.038Z,143.77
2018-03-26T03:43:06.273Z,151.70
2018-03-26T03:45:33.896Z,135.10
2018-03-26T03:48:01.353Z,138.50
2018-03-26T03:50:28.821Z,157.03
2018-03-26T03:52:56.306Z,155.10
2018-03-26T03:55:27.553Z,170.00
2018-03-26T03:57:55.038Z,148.70
2018-03-26T04:00:23.270Z,146.97
2018-03-26T04:02:50.739Z,165.47
2018-03-26T04:05:18.238Z,171.67
2018-03-26T04:07:46.471Z,176.17
2018-03-26T04:10:13.959Z,166.30
2018-03-26T04:12:42.216Z,167.70
2018-03-26T04:15:09.680Z,164.80
2018-03-26T04:17:37.144Z,175.60
2018-03-26T04:20:04.642Z,190.93
2018-03-26T04:22:32.106Z,191.98
2018-03-26T04:24:59.575Z,186.07
2018-03-26T04:27:27.058Z,194.97
2018-03-26T04:29:54.529Z,182.60
2018-03-26T04:32:22.751Z,182.37
2018-03-26T04:34:50.235Z,187.47
2018-03-26T04:37:17.717Z,200.77
2018-03-26T04:39:45.188Z,180.93
2018-03-26T04:42:13.452Z,202.53
2018-03-26T04:44:41.707Z,197.47
2018-03-26T04:47:09.178Z,187.70
2018-03-26T04:49:38.281Z,202.60
2018-03-26T04:52:05.779Z,197.70
2018-03-26T04:54:33.289Z,201.00
2018-03-26T04:57:01.532Z,211.13
2018-03-26T04:59:29.004Z,230.87
2018-03-26T05:01:56.498Z,220.50
2018-03-26T05:04:23.962Z,207.27
2018-03-26T05:06:51.462Z,199.77
2018-03-26T05:09:18.946Z,207.07
2018-03-26T05:11:47.184Z,239.90
2018-03-26T05:14:14.670Z,219.07
2018-03-26T05:16:42.911Z,237.75
2018-03-26T05:19:10.386Z,244.43
2018-03-26T05:21:38.668Z,214.40
2018-03-26T05:24:06.249Z,229.48
2018-03-26T05:26:34.478Z,228.33
2018-03-26T05:29:02.094Z,248.80
2018-03-26T05:31:29.574Z,268.33
2018-03-26T05:33:57.047Z,257.47
2018-03-26T05:36:24.549Z,270.67
2018-03-26T05:38:52.054Z,347.43
2018-03-26T05:41:19.583Z,264.10
2018-03-26T05:43:47.881Z,274.17
2018-03-26T05:46:15.391Z,272.93
2018-03-26T05:48:42.858Z,255.43
2018-03-26T05:51:11.327Z,254.67
2018-03-26T05:53:38.803Z,229.87
2018-03-26T05:56:07.055Z,223.73
2018-03-26T05:58:34.560Z,202.63
2018-03-26T06:01:02.026Z,223.17
2018-03-26T06:03:29.499Z,214.17
2018-03-26T06:05:56.985Z,176.70
2018-03-26T06:08:25.004Z,167.40
2018-03-26T06:10:52.487Z,148.70
2018-03-26T06:13:19.959Z,153.40
2018-03-26T06:15:47.427Z,134.33
2018-03-26T06:18:14.924Z,142.93
2018-03-26T06:20:42.394Z,123.17
2018-03-26T06:23:09.863Z,123.23
2018-03-26T06:25:37.482Z,138.27
2018-03-26T06:28:05.712Z,146.50
2018-03-26T06:30:33.223Z,154.27
2018-03-26T06:33:00.827Z,154.83
2018-03-26T06:35:28.294Z,116.77
2018-03-26T06:40:58.158Z,113.97
2018-03-26T06:43:26.679Z,142.83
2018-03-26T06:45:54.519Z,124.57
2018-03-26T06:48:23.904Z,132.67
2018-03-26T06:50:52.354Z,135.17
2018-03-26T06:53:21.015Z,118.00
2018-03-26T06:55:48.502Z,105.70
2018-03-26T06:58:15.998Z,109.37
2018-03-26T07:00:45.079Z,108.73
2018-03-26T07:03:13.335Z,93.37
2018-03-26T07:05:41.542Z,101.03
2018-03-26T07:08:09.161Z,85.37
2018-03-26T07:10:37.790Z,90.47
2018-03-26T07:13:05.926Z,89.00
2018-03-26T07:15:34.162Z,91.03
2018-03-26T07:18:02.362Z,82.37
2018-03-26T07:20:30.666Z,90.63
2018-03-26T07:23:00.558Z,83.83
2018-03-26T07:25:28.981Z,87.30
2018-03-26T07:27:56.445Z,79.37
2018-03-26T07:30:23.921Z,76.07
2018-03-26T07:32:51.615Z,73.53
2018-03-26T07:35:19.078Z,67.27
2018-03-26T07:37:47.303Z,73.83
2018-03-26T07:40:14.784Z,76.70
2018-03-26T07:42:42.242Z,74.90
2018-03-26T07:45:10.910Z,77.13
2018-03-26T07:47:38.374Z,73.87
2018-03-26T07:50:05.843Z,66.00
2018-03-26T07:52:33.418Z,63.10
2018-03-26T07:55:01.648Z,54.57
2018-03-26T07:57:29.106Z,54.90
2018-03-26T07:59:56.607Z,53.43
2018-03-26T08:02:24.852Z,50.27
2018-03-26T08:04:52.318Z,46.13
2018-03-26T08:07:19.892Z,50.07
2018-03-26T08:09:47.353Z,48.90
2018-03-26T08:12:15.589Z,48.43
2018-03-26T08:14:43.283Z,43.17
2018-03-26T08:17:10.800Z,42.83
2018-03-26T08:19:38.990Z,41.77
2018-03-26T08:22:06.480Z,51.30
2018-03-26T08:24:34.731Z,41.07
2018-03-26T08:27:02.202Z,40.07
2018-03-26T08:29:31.192Z,38.80
2018-03-26T08:31:58.760Z,40.83
2018-03-26T08:34:26.234Z,38.70
2018-03-26T08:36:54.481Z,36.73
2018-03-26T08:39:21.950Z,37.10
2018-03-26T08:41:49.413Z,34.90
2018-03-26T08:44:17.654Z,34.87
2018-03-26T08:46:45.158Z,43.03
2018-03-26T08:49:12.649Z,38.83
2018-03-26T08:51:40.114Z,37.97
2018-03-26T08:54:07.579Z,33.20
2018-03-26T08:56:35.073Z,33.60
2018-03-26T08:59:03.296Z,30.30
2018-03-26T09:01:30.771Z,34.13
2018-03-26T09:03:58.258Z,33.80
2018-03-26T09:06:26.490Z,29.20
2018-03-26T09:08:54.182Z,31.70
2018-03-26T09:11:21.666Z,26.67
2018-03-26T09:13:49.136Z,31.13
2018-03-26T09:16:16.626Z,28.00
2018-03-26T09:18:44.106Z,27.10
2018-03-26T09:21:11.574Z,28.53
2018-03-26T09:23:39.833Z,30.80
2018-03-26T09:26:07.326Z,28.37
2018-03-26T09:28:35.553Z,25.23
2018-03-26T09:31:03.050Z,28.87
2018-03-26T09:33:32.392Z,29.13
2018-03-26T09:35:59.851Z,27.27
2018-03-26T09:38:27.346Z,27.47
2018-03-26T09:40:54.848Z,27.60
2018-03-26T09:43:22.310Z,24.47
2018-03-26T09:45:49.783Z,28.83
2018-03-26T09:48:17.250Z,25.03
2018-03-26T09:50:44.718Z,26.67
2018-03-26T09:53:13.260Z,24.90
2018-03-26T09:55:43.626Z,25.97
2018-03-26T09:58:11.084Z,22.83
2018-03-26T10:00:44.982Z,26.93
2018-03-26T10:03:13.128Z,23.03
2018-03-26T10:05:40.647Z,19.57
2018-03-26T10:08:08.119Z,21.00
2018-03-26T10:10:35.610Z,16.97
2018-03-26T10:13:03.082Z,22.70
2018-03-26T10:15:37.067Z,18.77
2018-03-26T10:18:04.534Z,18.43
2018-03-26T10:20:32.022Z,14.10
2018-03-26T10:22:59.666Z,23.03
2018-03-26T10:25:27.133Z,17.87
2018-03-26T10:27:54.612Z,14.10
2018-03-26T10:30:22.856Z,15.27
2018-03-26T10:32:50.316Z,15.27
2018-03-26T10:35:17.819Z,12.93
2018-03-26T10:37:45.282Z,13.33
2018-03-26T10:40:12.749Z,12.77
2018-03-26T10:42:40.230Z,15.37
2018-03-26T10:45:07.717Z,13.27
2018-03-26T10:47:35.967Z,14.40
2018-03-26T10:50:03.423Z,9.50
2018-03-26T10:52:30.882Z,14.00
2018-03-26T10:54:58.397Z,14.63
2018-03-26T10:57:25.855Z,10.80
2018-03-26T10:59:53.338Z,14.07
2018-03-26T11:02:20.876Z,13.40
2018-03-26T11:04:48.331Z,17.83
2018-03-26T11:07:15.792Z,10.17
2018-03-26T11:09:43.276Z,12.70
2018-03-26T11:12:10.748Z,10.53
2018-03-26T11:14:38.261Z,6.30
2018-03-26T11:17:05.755Z,9.80
2018-03-26T11:19:33.228Z,6.90
2018-03-26T11:22:00.680Z,7.33
2018-03-26T11:24:28.158Z,6.63
2018-03-26T11:26:56.386Z,11.20
2018-03-26T11:29:23.893Z,11.03
2018-03-26T11:31:51.346Z,7.87
2018-03-26T11:34:18.811Z,11.03
2018-03-26T11:36:46.302Z,10.20
2018-03-26T11:39:13.776Z,9.97
2018-03-26T11:41:41.246Z,11.20
2018-03-26T11:44:08.759Z,11.07
2018-03-26T11:46:36.211Z,7.90
2018-03-26T11:49:03.671Z,8.10
2018-03-26T11:51:31.167Z,5.33
2018-03-26T11:53:58.622Z,8.50
2018-03-26T11:56:26.085Z,7.00
2018-03-26T11:58:54.340Z,6.17
2018-03-26T12:01:21.804Z,7.93
2018-03-26T12:03:49.272Z,7.00
2018-03-26T12:06:16.760Z,6.77
2018-03-26T12:08:44.223Z,9.87
2018-03-26T12:11:11.710Z,11.23
2018-03-26T12:13:39.178Z,6.70
2018-03-26T12:16:06.650Z,7.13
2018-03-26T12:18:34.107Z,8.07
2018-03-26T12:21:01.767Z,6.90
2018-03-26T12:23:41.144Z,7.90
2018-03-26T12:26:08.627Z,4.70
2018-03-26T12:28:48.004Z,6.50
2018-03-26T12:31:15.492Z,7.73
2018-03-26T12:34:07.586Z,3.73
2018-03-26T12:36:35.063Z,6.80
2018-03-26T12:39:03.293Z,7.20
2018-03-26T12:41:30.755Z,5.07
2018-03-26T12:43:58.544Z,6.60
2018-03-26T12:46:44.327Z,6.80
2018-03-26T12:49:11.989Z,7.47
2018-03-26T12:51:51.522Z,5.50
2018-03-26T12:54:19.010Z,5.93
2018-03-26T12:56:47.244Z,9.70
2018-03-26T12:59:14.707Z,5.33
2018-03-26T13:01:53.985Z,4.67
2018-03-26T13:04:21.448Z,6.30
2018-03-26T13:06:48.958Z,6.60
2018-03-26T13:09:16.444Z,5.27
2018-03-26T13:11:44.672Z,10.70
2018-03-26T13:14:12.143Z,8.03
2018-03-26T13:16:39.657Z,7.20
2018-03-26T13:19:07.114Z,9.03
2018-03-26T13:21:34.571Z,8.10
2018-03-26T13:24:02.283Z,7.03
2018-03-26T13:26:29.738Z,7.70
2018-03-26T13:28:57.214Z,18.00
2018-03-26T13:31:25.694Z,7.37
2018-03-26T13:33:53.919Z,7.20
2018-03-26T13:36:21.369Z,7.13
2018-03-26T13:38:49.079Z,8.50
2018-03-26T13:41:17.297Z,6.70
2018-03-26T13:43:44.773Z,8.33
2018-03-26T13:46:12.251Z,7.20
2018-03-26T13:48:39.715Z,8.60
2018-03-26T13:51:07.175Z,9.00
2018-03-26T13:53:34.661Z,7.97
2018-03-26T13:56:02.135Z,9.47
2018-03-26T13:58:29.595Z,7.47
2018-03-26T14:00:57.104Z,7.00
2018-03-26T14:03:24.564Z,12.03
2018-03-26T14:05:52.840Z,13.90
2018-03-26T14:08:33.043Z,9.83
2018-03-26T14:11:12.613Z,12.30
2018-03-26T14:14:02.623Z,9.57
2018-03-26T14:16:42.654Z,11.63
2018-03-26T14:19:10.127Z,8.67
2018-03-26T14:21:38.350Z,8.93
2018-03-26T14:24:05.898Z,11.47
2018-03-26T14:26:34.081Z,8.17
2018-03-26T14:29:01.539Z,9.40
2018-03-26T14:31:29.032Z,14.90
2018-03-26T14:33:56.489Z,11.33
2018-03-26T14:36:23.966Z,17.10
2018-03-26T14:38:52.214Z,11.03
2018-03-26T14:41:20.763Z,8.80
2018-03-26T14:43:49.361Z,10.80
2018-03-26T14:46:17.710Z,9.00
2018-03-26T14:48:46.370Z,10.53
2018-03-26T14:51:16.729Z,9.30
2018-03-26T14:53:45.381Z,10.43
2018-03-26T14:56:13.624Z,8.37
2018-03-26T14:58:45.457Z,13.80
2018-03-26T15:01:14.125Z,10.77
2018-03-26T15:03:41.600Z,10.07
2018-03-26T15:06:09.059Z,11.07
2018-03-26T15:08:36.531Z,10.53
2018-03-26T15:11:04.002Z,16.23
2018-03-26T15:13:31.466Z,10.40
2018-03-26T15:15:59.696Z,10.70
2018-03-26T15:18:27.200Z,10.10
2018-03-26T15:20:54.658Z,8.53
2018-03-26T15:23:22.112Z,12.77
2018-03-26T15:25:50.368Z,15.77
2018-03-26T15:28:17.840Z,9.97
2018-03-26T15:30:45.299Z,9.87
2018-03-26T15:33:12.954Z,9.37
2018-03-26T15:35:40.531Z,8.30
2018-03-26T15:38:08.766Z,9.13
2018-03-26T15:40:36.266Z,10.70
2018-03-26T15:43:04.513Z,10.33
2018-03-26T15:45:32.003Z,8.70
2018-03-26T15:48:00.243Z,12.50
2018-03-26T15:50:27.716Z,15.87
2018-03-26T15:52:55.978Z,11.03
2018-03-26T15:55:23.505Z,8.33
2018-03-26T15:57:50.933Z,8.67
2018-03-26T16:00:18.399Z,11.33
2018-03-26T16:02:51.711Z,9.10
2018-03-26T16:05:19.174Z,10.10
2018-03-26T16:07:46.651Z,9.90
2018-03-26T16:10:14.922Z,11.10
2018-03-26T16:12:42.376Z,7.77
2018-03-26T16:15:09.838Z,10.43
2018-03-26T16:17:37.329Z,8.80
2018-03-26T16:20:05.580Z,8.77
2018-03-26T16:22:33.043Z,10.97
2018-03-26T16:25:01.403Z,8.60
2018-03-26T16:27:28.874Z,11.63
2018-03-26T16:29:56.341Z,9.70
2018-03-26T16:32:24.590Z,7.23
2018-03-26T16:34:52.061Z,9.07
2018-03-26T16:37:19.515Z,10.20
2018-03-26T16:39:46.986Z,7.97
2018-03-26T16:42:23.893Z,10.90
2018-03-26T16:44:51.457Z,8.13
2018-03-26T16:47:18.912Z,9.30
2018-03-26T16:49:46.369Z,8.00
2018-03-26T16:52:13.861Z,12.27
2018-03-26T16:54:41.327Z,7.20
2018-03-26T16:57:08.787Z,16.20
2018-03-26T16:59:36.275Z,8.33
2018-03-26T17:02:03.748Z,10.33
2018-03-26T17:04:31.227Z,14.33
2018-03-26T17:06:58.709Z,9.07
2018-03-26T17:09:26.167Z,7.40
2018-03-26T17:11:53.648Z,13.60
2018-03-26T17:14:21.871Z,9.70
2018-03-26T17:16:49.344Z,11.07
2018-03-26T17:19:16.827Z,9.00
2018-03-26T17:21:44.299Z,7.30
2018-03-26T17:24:11.851Z,13.23
2018-03-26T17:26:39.304Z,12.07
2018-03-26T17:29:06.782Z,10.30
2018-03-26T17:31:34.272Z,8.87
2018-03-26T17:34:01.743Z,10.63
2018-03-26T17:36:29.224Z,7.03
2018-03-26T17:38:56.706Z,6.60
2018-03-26T17:41:24.173Z,9.60
2018-03-26T17:43:51.740Z,10.17
2018-03-26T17:46:19.447Z,8.90
2018-03-26T17:48:46.926Z,11.83
2018-03-26T17:51:15.156Z,10.93
2018-03-26T17:53:42.657Z,10.50
2018-03-26T17:56:10.876Z,8.80
2018-03-26T17:58:38.335Z,8.77
2018-03-26T18:01:05.822Z,12.07
2018-03-26T18:03:33.278Z,12.23
2018-03-26T18:06:00.738Z,12.70
2018-03-26T18:08:28.228Z,11.30
2018-03-26T18:10:55.692Z,15.63
2018-03-26T18:13:23.180Z,17.53
2018-03-26T18:15:50.645Z,15.77
2018-03-26T18:18:18.111Z,10.10
2018-03-26T18:20:45.616Z,13.93
2018-03-26T18:23:13.082Z,10.47
2018-03-26T18:25:40.548Z,13.13
2018-03-26T18:28:08.025Z,10.47
2018-03-26T18:30:35.474Z,13.97
2018-03-26T18:33:03.112Z,14.37
2018-03-26T18:35:30.597Z,14.17
2018-03-26T18:37:58.055Z,14.10
2018-03-26T18:40:25.580Z,22.67
2018-03-26T18:42:53.047Z,18.00
2018-03-26T18:45:20.508Z,15.57
2018-03-26T18:47:48.052Z,15.20
2018-03-26T18:50:15.508Z,14.40
2018-03-26T18:52:42.974Z,19.80
2018-03-26T18:55:10.483Z,18.47
2018-03-26T18:57:37.935Z,23.73
2018-03-26T19:00:06.170Z,20.07
2018-03-26T19:02:33.666Z,20.27
2018-03-26T19:05:01.157Z,18.63
2018-03-26T19:07:28.683Z,20.87
2018-03-26T19:09:56.940Z,21.67
2018-03-26T19:12:25.923Z,20.50
2018-03-26T19:14:53.384Z,19.80
2018-03-26T19:17:20.884Z,18.80
2018-03-26T19:19:49.102Z,17.70
2018-03-26T19:22:16.590Z,19.57
2018-03-26T19:24:44.078Z,26.60
2018-03-26T19:27:11.552Z,22.13
2018-03-26T19:29:39.894Z,25.23
2018-03-26T19:32:08.184Z,18.80
2018-03-26T19:34:35.899Z,18.60
2018-03-26T19:37:03.371Z,19.10
2018-03-26T19:39:32.002Z,34.97
2018-03-26T19:42:01.801Z,20.70
2018-03-26T19:44:29.379Z,19.83
2018-03-26T19:46:58.363Z,23.97
2018-03-26T19:49:25.831Z,25.30
2018-03-26T19:51:53.991Z,22.63
2018-03-26T19:54:22.246Z,20.00
2018-03-26T19:56:51.323Z,24.73
2018-03-26T19:59:20.568Z,26.30
2018-03-26T20:01:50.747Z,24.37
2018-03-26T20:04:18.946Z,22.53
2018-03-26T20:06:46.517Z,23.77
2018-03-26T20:09:14.076Z,24.13
2018-03-26T20:11:41.554Z,34.10
2018-03-26T20:14:10.422Z,35.50
2018-03-26T20:16:39.725Z,29.30
2018-03-26T20:19:07.180Z,26.30
2018-03-26T20:21:35.658Z,23.57
2018-03-26T20:24:03.163Z,29.70
2018-03-26T20:26:32.250Z,30.00
2018-03-26T20:29:01.764Z,30.70
2018-03-26T20:31:30.339Z,27.73
2018-03-26T20:33:59.840Z,32.40
2018-03-26T20:36:27.357Z,34.33
2018-03-26T20:38:55.076Z,36.47
2018-03-26T20:41:23.107Z,31.33
2018-03-26T20:43:51.892Z,31.67
2018-03-26T20:46:20.374Z,31.97
2018-03-26T20:48:48.330Z,40.57
2018-03-26T20:51:16.718Z,37.00
2018-03-26T20:53:44.245Z,35.70
2018-03-26T20:56:12.532Z,41.20
2018-03-26T20:58:40.028Z,45.87
2018-03-26T21:01:07.523Z,37.73
2018-03-26T21:03:35.745Z,42.30
2018-03-26T21:06:03.266Z,41.93
2018-03-26T21:08:30.726Z,38.20
2018-03-26T21:10:58.206Z,43.53
2018-03-26T21:13:25.693Z,47.40
2018-03-26T21:15:53.166Z,47.90
2018-03-26T21:18:21.413Z,48.63
2018-03-26T21:20:48.894Z,51.00
2018-03-26T21:23:16.378Z,55.10
2018-03-26T21:25:44.599Z,47.47
2018-03-26T21:28:12.096Z,50.17
2018-03-26T21:30:40.330Z,48.80
2018-03-26T21:33:07.796Z,55.47
2018-03-26T21:35:35.277Z,54.47
2018-03-26T21:38:03.534Z,56.50
2018-03-26T21:40:30.978Z,58.80
2018-03-26T21:42:58.472Z,60.33
2018-03-26T21:45:26.712Z,58.10
2018-03-26T21:47:54.189Z,55.50
2018-03-26T21:50:21.682Z,55.23
2018-03-26T21:52:49.149Z,63.60
2018-03-26T21:55:16.619Z,61.63
2018-03-26T21:57:44.119Z,63.37
2018-03-26T22:00:17.619Z,70.40
2018-03-26T22:02:45.882Z,66.07
2018-03-26T22:05:13.470Z,63.60
2018-03-26T22:07:41.695Z,64.50
2018-03-26T22:10:09.170Z,63.33
2018-03-26T22:12:36.634Z,62.10
2018-03-26T22:15:04.110Z,71.37
2018-03-26T22:17:32.551Z,60.20
2018-03-26T22:20:00.028Z,66.00
2018-03-26T22:22:28.281Z,48.67
2018-03-26T22:24:55.770Z,57.53
2018-03-26T22:27:23.232Z,69.83
2018-03-26T22:29:51.471Z,64.53
2018-03-26T22:32:18.965Z,70.57
2018-03-26T22:34:47.217Z,70.67
2018-03-26T22:37:14.690Z,79.97
2018-03-26T22:39:42.954Z,77.13
2018-03-26T22:42:10.516Z,73.20
2018-03-26T22:44:38.077Z,89.27
2018-03-26T22:47:05.631Z,69.90
2018-03-26T22:49:33.114Z,74.57
2018-03-26T22:52:00.638Z,66.70
2018-03-26T22:54:28.208Z,75.73
2018-03-26T22:56:55.762Z,72.33
2018-03-26T22:59:23.323Z,71.40
2018-03-26T23:01:51.594Z,77.37
2018-03-26T23:04:19.062Z,82.20
2018-03-26T23:06:47.311Z,71.27
2018-03-26T23:09:14.775Z,67.90
2018-03-26T23:11:42.348Z,68.23
2018-03-26T23:14:10.605Z,69.70
2018-03-26T23:16:38.079Z,70.57
2018-03-26T23:19:05.558Z,70.50
2018-03-26T23:21:33.793Z,64.00
2018-03-26T23:24:01.263Z,65.17
2018-03-26T23:26:30.230Z,68.87
2018-03-26T23:28:57.726Z,68.77
2018-03-26T23:31:25.954Z,59.77
2018-03-26T23:33:53.463Z,63.43
2018-03-26T23:36:20.973Z,64.93
2018-03-26T23:38:49.150Z,66.17
2018-03-26T23:41:16.622Z,63.30
2018-03-26T23:43:44.119Z,73.73
2018-03-26T23:46:11.574Z,64.60
2018-03-26T23:48:39.048Z,56.67
2018-03-26T23:51:06.524Z,65.33
2018-03-26T23:53:33.989Z,72.20
2018-03-26T23:56:01.496Z,67.30
2018-03-26T23:58:28.947Z,60.87
